Time;durP1;ratioP1;P1;durP2;ratioP2;P2;SDS_P1;SDS_P2;PMS_P1;PMS_P2;Temp;Humidity;BMP_temperature;BMP_pressure;BME280_temperature;BME280_humidity;BME280_pressure;Samples;Min_cycle;Max_cycle;Signal;HPM_P1;HPM_P2
2021/09/23 00:00:43;;;;;;;43.35;22.15;;;;;;;9.26;74.17;98972.19;4994904;28;20058;-77
2021/09/23 00:03:12;;;;;;;48.58;22.73;;;;;;;9.26;74.18;98957.75;4991719;28;20116;-77
2021/09/23 00:05:40;;;;;;;46.88;23.05;;;;;;;9.29;74.10;98962.63;4991730;28;20061;-77
2021/09/23 00:08:08;;;;;;;42.35;23.30;;;;;;;9.25;74.10;98967.84;4975931;28;20531;-77
2021/09/23 00:10:37;;;;;;;;;;;;;;;9.33;74.14;98972.69;4995522;28;20545;-77
2021/09/23 00:13:04;;;;;;;47.60;23.80;;;;;;;9.34;73.92;98960.66;4975618;28;19933;-77
2021/09/23 00:15:31;;;;;;;45.67;23.55;;;;;;;9.29;73.98;98965.34;4986121;28;20117;-76
2021/09/23 00:18:00;;;;;;;46.78;23.88;;;;;;;9.31;74.30;98957.69;4982759;28;20506;-77
2021/09/23 00:20:29;;;;;;;49.38;24.58;;;;;;;9.22;74.23;98952.88;4977367;28;20501;-77
2021/09/23 00:22:57;;;;;;;49.17;23.50;;;;;;;9.30;74.33;98956.91;4994096;28;20105;-77
2021/09/23 00:25:26;;;;;;;48.88;23.33;;;;;;;9.31;74.42;98966.72;4977551;28;20086;-77
2021/09/23 00:28:02;;;;;;;57.50;23.73;;;;;;;9.25;74.40;98950.66;4976335;28;20046;-76
2021/09/23 00:30:28;;;;;;;50.10;22.88;;;;;;;9.31;74.39;98957.69;4977864;28;20059;-76
2021/09/23 00:32:55;;;;;;;49.38;23.50;;;;;;;9.33;74.33;98964.50;4980272;28;20194;-77
2021/09/23 00:35:22;;;;;;;48.72;23.33;;;;;;;9.25;74.62;98956.13;4976371;28;20412;-77
2021/09/23 00:37:49;;;;;;;43.60;21.77;;;;;;;9.30;74.63;98961.53;4946089;28;20054;-77
2021/09/23 00:40:17;;;;;;;51.95;23.40;;;;;;;9.30;74.71;98966.97;5001952;28;20054;-77
2021/09/23 00:42:47;;;;;;;52.83;23.17;;;;;;;9.32;74.78;98981.16;4968386;28;20156;-77
2021/09/23 00:45:18;;;;;;;52.63;22.50;;;;;;;9.26;74.72;98964.00;4994493;28;20054;-76
2021/09/23 00:47:44;;;;;;;51.15;21.83;;;;;;;9.28;74.92;98972.72;4965016;28;20057;-77
2021/09/23 00:50:14;;;;;;;45.75;21.67;;;;;;;9.31;74.97;98960.41;4976777;28;20429;-77
2021/09/23 00:52:41;;;;;;;53.25;22.88;;;;;;;9.27;75.11;98960.19;4975275;28;20084;-75
2021/09/23 00:55:10;;;;;;;56.05;22.10;;;;;;;9.25;75.32;98959.66;4947497;28;20060;-76
2021/09/23 00:57:38;;;;;;;46.35;21.40;;;;;;;9.27;75.24;98959.38;4964138;28;20086;-76
2021/09/23 01:00:07;;;;;;;52.70;20.40;;;;;;;9.29;75.27;98944.34;4981140;28;20046;-77
2021/09/23 01:02:45;;;;;;;44.10;20.65;;;;;;;9.27;75.16;98930.16;4967747;28;20101;-77
2021/09/23 01:05:11;;;;;;;47.65;21.00;;;;;;;9.27;75.25;98946.53;4977870;28;20511;-76
2021/09/23 01:07:43;;;;;;;46.22;20.75;;;;;;;9.31;75.43;98946.78;4959886;28;20058;-77
2021/09/23 01:10:10;;;;;;;48.63;22.00;;;;;;;9.22;75.54;98936.50;4975702;28;20506;-76
2021/09/23 01:12:37;;;;;;;44.70;19.85;;;;;;;9.30;75.49;98954.16;4978031;28;20145;-76
2021/09/23 01:15:05;;;;;;;47.38;20.30;;;;;;;9.34;75.50;98951.66;4959856;28;20152;-76
2021/09/23 01:17:35;;;;;;;49.60;20.15;;;;;;;9.35;75.33;98943.19;4982810;28;20523;-77
2021/09/23 01:20:02;;;;;;;39.65;19.58;;;;;;;9.36;75.37;98944.00;4989975;28;20054;-75
2021/09/23 01:22:36;;;;;;;39.00;19.27;;;;;;;9.36;75.19;98936.63;4976172;28;20077;-77
2021/09/23 01:25:20;;;;;;;42.28;18.73;;;;;;;9.39;75.34;98934.44;4977124;28;20050;-77
2021/09/23 01:27:48;;;;;;;42.03;19.27;;;;;;;9.28;75.49;98918.16;4982961;28;20054;-77
2021/09/23 01:30:22;;;;;;;53.88;20.67;;;;;;;9.32;75.41;98924.69;4984422;28;20440;-77
2021/09/23 01:32:49;;;;;;;55.63;20.35;;;;;;;9.32;75.67;98923.84;4984722;28;20058;-76
2021/09/23 01:35:20;;;;;;;50.70;20.30;;;;;;;9.31;75.69;98928.50;4975933;28;20058;-76
2021/09/23 01:37:52;;;;;;;53.03;20.95;;;;;;;9.34;75.64;98927.94;4976568;28;20057;-77
2021/09/23 01:40:21;;;;;;;53.38;21.02;;;;;;;9.30;75.67;98921.44;4959766;28;20421;-77
2021/09/23 01:42:47;;;;;;;62.80;21.67;;;;;;;9.31;75.78;98917.59;4987332;28;20141;-75
2021/09/23 01:45:14;;;;;;;60.47;22.23;;;;;;;9.34;75.74;98921.66;4975333;28;20073;-76
2021/09/23 01:47:50;;;;;;;54.13;22.10;;;;;;;9.29;75.68;98905.34;4982619;28;20046;-76
2021/09/23 01:50:22;;;;;;;54.95;21.58;;;;;;;9.33;75.71;98914.56;4959727;28;20302;-77
2021/09/23 01:52:53;;;;;;;63.95;22.58;;;;;;;9.33;75.81;98900.94;4958690;28;20100;-76
2021/09/23 01:55:20;;;;;;;63.20;22.15;;;;;;;9.33;75.98;98914.56;4974488;28;20511;-77
2021/09/23 01:57:48;;;;;;;56.33;21.48;;;;;;;9.31;75.77;98906.69;4983289;28;20129;-77
2021/09/23 02:00:16;;;;;;;54.35;21.08;;;;;;;9.29;75.93;98900.72;4976861;28;20069;-76
2021/09/23 02:02:48;;;;;;;54.30;20.58;;;;;;;9.35;75.79;98907.72;4980834;28;20094;-75
2021/09/23 02:05:31;;;;;;;56.78;21.25;;;;;;;9.34;76.02;98914.28;4975821;28;20162;-76
2021/09/23 02:08:00;;;;;;;53.67;20.15;;;;;;;9.35;76.01;98901.44;4959328;28;20058;-76
2021/09/23 02:10:26;;;;;;;51.25;19.05;;;;;;;9.34;75.91;98891.63;4976048;28;20066;-77
2021/09/23 02:12:55;;;;;;;;;;;;;;;9.36;75.69;98893.00;4960389;28;20050;-76
2021/09/23 02:15:22;;;;;;;47.53;19.17;;;;;;;9.40;75.77;98892.41;4975285;28;19926;-77
2021/09/23 02:17:48;;;;;;;50.72;18.73;;;;;;;9.38;75.79;98894.63;4974426;28;20058;-76
2021/09/23 02:20:20;;;;;;;54.60;19.50;;;;;;;9.38;76.05;98887.25;4959514;28;20533;-76
2021/09/23 02:22:48;;;;;;;49.38;18.25;;;;;;;9.34;76.04;98886.19;4973757;28;20058;-76
2021/09/23 02:25:17;;;;;;;47.22;17.58;;;;;;;9.38;76.06;98891.88;4975094;28;20062;-77
2021/09/23 02:27:43;;;;;;;44.33;18.15;;;;;;;9.36;76.03;98895.72;4979387;28;20050;-78
2021/09/23 02:30:11;;;;;;;42.58;16.88;;;;;;;9.27;75.98;98878.34;4975086;28;20117;-77
2021/09/23 02:32:37;;;;;;;37.90;15.85;;;;;;;9.34;76.10;98897.09;4990742;28;20042;-75
2021/09/23 02:35:06;;;;;;;36.80;16.45;;;;;;;9.36;76.28;98890.25;4991704;28;20416;-76
2021/09/23 02:37:33;;;;;;;41.72;17.90;;;;;;;9.39;76.09;98888.88;4973643;28;20106;-76
2021/09/23 02:39:59;;;;;;;42.70;17.10;;;;;;;9.40;76.21;98890.50;4974437;28;20055;-76
2021/09/23 02:42:27;;;;;;;40.78;18.10;;;;;;;9.44;76.00;98886.09;4959688;28;20533;-76
2021/09/23 02:44:53;;;;;;;39.55;17.90;;;;;;;9.43;76.08;98889.09;4986861;28;20054;-76
2021/09/23 02:47:22;;;;;;;40.55;18.40;;;;;;;9.32;76.00;98872.03;4984735;28;20050;-76
2021/09/23 02:49:49;;;;;;;36.80;16.48;;;;;;;9.47;75.87;98887.44;4957808;28;20490;-76
2021/09/23 02:52:15;;;;;;;38.88;18.70;;;;;;;9.46;75.92;98891.25;4989720;28;20069;-77
2021/09/23 02:54:41;;;;;;;34.50;16.73;;;;;;;9.44;76.10;98893.44;4981647;28;20603;-77
2021/09/23 02:57:11;;;;;;;35.00;16.23;;;;;;;9.44;75.91;98897.00;4973919;28;20145;-77
2021/09/23 02:59:39;;;;;;;30.75;14.68;;;;;;;9.41;76.04;98885.84;4975888;28;20061;-76
2021/09/23 03:02:05;;;;;;;28.08;13.30;;;;;;;9.50;75.69;98901.28;4989817;28;20507;-76
2021/09/23 03:04:35;;;;;;;25.25;11.57;;;;;;;9.55;75.77;98903.16;4978462;28;20058;-76
2021/09/23 03:07:01;;;;;;;23.55;10.95;;;;;;;9.56;75.43;98899.31;4977763;28;20056;-76
2021/09/23 03:09:31;;;;;;;23.67;10.02;;;;;;;9.49;75.39;98890.69;4974295;28;20434;-78
2021/09/23 03:11:57;;;;;;;29.05;11.63;;;;;;;9.60;75.28;98900.38;4974474;28;20048;-77
2021/09/23 03:14:26;;;;;;;25.30;10.55;;;;;;;9.60;74.99;98899.56;4972344;28;20046;-76
2021/09/23 03:16:54;;;;;;;27.73;11.40;;;;;;;9.55;75.13;98888.72;4983339;28;20149;-77
2021/09/23 03:19:20;;;;;;;20.88;9.98;;;;;;;9.56;75.11;98898.53;4989601;28;20085;-77
2021/09/23 03:21:49;;;;;;;21.73;10.00;;;;;;;9.53;75.51;98904.56;5001651;28;20375;-76
2021/09/23 03:24:15;;;;;;;20.17;9.45;;;;;;;9.53;75.62;98901.84;4978567;28;20054;-76
2021/09/23 03:26:43;;;;;;;19.88;9.05;;;;;;;9.56;75.64;98907.50;4951609;28;20105;-76
2021/09/23 03:29:10;;;;;;;16.85;7.78;;;;;;;9.56;75.38;98899.31;4977208;28;20101;-76
2021/09/23 03:31:37;;;;;;;17.92;7.20;;;;;;;9.56;75.44;98890.34;4996072;28;20054;-76
2021/09/23 03:34:05;;;;;;;16.20;7.07;;;;;;;9.59;75.52;98884.28;4991062;28;20133;-76
2021/09/23 03:36:31;;;;;;;14.00;6.47;;;;;;;9.53;75.48;98866.38;4989711;28;20052;-77
2021/09/23 03:38:58;;;;;;;15.57;7.68;;;;;;;9.48;75.58;98875.41;4974154;28;20106;-77
2021/09/23 03:41:27;;;;;;;14.23;6.50;;;;;;;9.47;75.63;98862.88;4989332;28;20058;-78
2021/09/23 03:43:53;;;;;;;13.63;6.85;;;;;;;9.51;75.67;98869.38;4994116;28;20046;-77
2021/09/23 03:46:19;;;;;;;12.95;5.90;;;;;;;9.53;75.54;98875.34;4978395;28;20153;-78
2021/09/23 03:48:48;;;;;;;13.70;5.53;;;;;;;9.51;75.72;98869.38;4996300;28;20145;-76
2021/09/23 03:51:16;;;;;;;12.98;5.65;;;;;;;9.49;75.72;98869.66;4986939;28;20518;-76
2021/09/23 03:53:42;;;;;;;13.38;5.68;;;;;;;9.52;75.70;98871.00;4969419;28;20062;-76
2021/09/23 03:56:12;;;;;;;12.80;5.15;;;;;;;9.51;75.79;98875.63;4977368;28;20711;-77
2021/09/23 03:58:42;;;;;;;11.38;4.75;;;;;;;9.52;75.70;98876.44;4991108;28;20050;-76
2021/09/23 04:01:12;;;;;;;12.30;4.75;;;;;;;9.53;75.63;98875.34;5001208;28;20635;-77
2021/09/23 04:03:39;;;;;;;9.85;4.45;;;;;;;9.56;75.80;98871.22;4980643;28;20053;-76
2021/09/23 04:06:05;;;;;;;12.10;4.70;;;;;;;9.55;75.58;98869.63;4995072;28;20050;-76
2021/09/23 04:08:33;;;;;;;13.73;4.65;;;;;;;9.33;75.66;98830.00;4994994;28;20149;-76
2021/09/23 04:10:59;;;;;;;;;;;;;;;9.57;75.86;98870.94;4978261;28;20105;-76
2021/09/23 04:13:27;;;;;;;10.25;4.20;;;;;;;9.58;75.88;98867.09;4978123;28;19975;-75
2021/09/23 04:15:53;;;;;;;10.77;4.28;;;;;;;9.60;75.58;98864.09;4993018;28;20085;-77
2021/09/23 04:18:21;;;;;;;11.02;4.53;;;;;;;9.60;75.56;98866.81;4962187;28;20082;-75
2021/09/23 04:20:48;;;;;;;9.67;4.30;;;;;;;9.48;75.71;98848.13;4995848;28;20062;-74
2021/09/23 04:23:15;;;;;;;10.68;3.95;;;;;;;9.61;75.92;98866.53;4995448;28;20343;-76
2021/09/23 04:25:46;;;;;;;10.68;4.18;;;;;;;9.64;75.73;98865.94;4977789;28;20105;-76
2021/09/23 04:28:12;;;;;;;11.25;4.65;;;;;;;9.64;75.70;98863.22;4979120;28;20050;-76
2021/09/23 04:30:38;;;;;;;10.77;4.85;;;;;;;9.64;75.89;98860.47;4979245;28;20137;-77
2021/09/23 04:33:04;;;;;;;11.45;4.75;;;;;;;9.67;75.87;98856.34;4976814;28;20052;-76
2021/09/23 04:35:31;;;;;;;11.52;4.40;;;;;;;9.65;76.02;98862.09;4983627;28;20113;-77
2021/09/23 04:37:57;;;;;;;12.63;4.28;;;;;;;9.71;75.95;98862.03;4977945;28;21676;-78
2021/09/23 04:40:26;;;;;;;10.75;4.50;;;;;;;9.62;75.58;98843.59;4978747;28;20065;-77
2021/09/23 04:42:53;;;;;;;12.48;4.93;;;;;;;9.78;75.75;98862.50;4998040;28;20077;-76
2021/09/23 04:45:19;;;;;;;12.32;5.00;;;;;;;9.81;75.49;98861.91;4982743;28;20499;-76
2021/09/23 04:47:51;;;;;;;13.18;5.47;;;;;;;9.78;75.69;98855.13;4990705;28;20061;-76
2021/09/23 04:50:21;;;;;;;12.30;5.47;;;;;;;9.81;75.51;98839.25;4980645;28;20114;-77
2021/09/23 04:52:47;;;;;;;14.13;5.97;;;;;;;9.84;75.58;98842.22;4977219;28;20146;-76
2021/09/23 04:55:13;;;;;;;12.27;5.78;;;;;;;9.84;75.66;98847.69;4996773;28;20089;-76
2021/09/23 04:57:39;;;;;;;15.13;6.95;;;;;;;9.84;75.83;98855.88;4976505;28;20061;-75
2021/09/23 05:00:10;;;;;;;11.90;5.72;;;;;;;9.85;75.98;98864.88;4993264;28;20082;-76
2021/09/23 05:02:40;;;;;;;12.63;5.45;;;;;;;9.88;75.73;98858.84;4990908;28;20141;-75
2021/09/23 05:05:07;;;;;;;13.07;6.20;;;;;;;9.91;75.53;98861.78;5000912;28;20064;-76
2021/09/23 05:07:39;;;;;;;14.27;6.20;;;;;;;9.91;75.70;98864.53;4974700;28;20058;-76
2021/09/23 05:10:07;;;;;;;12.85;5.95;;;;;;;9.90;75.78;98860.13;4967409;28;20054;-76
2021/09/23 05:12:34;;;;;;;15.50;6.10;;;;;;;9.96;75.77;98858.16;4959893;28;20504;-76
2021/09/23 05:15:02;;;;;;;;;;;;;;;9.96;75.92;98860.88;4993774;28;20053;-76
2021/09/23 05:17:29;;;;;;;19.45;6.90;;;;;;;9.96;75.75;98855.44;4994965;28;19988;-76
2021/09/23 05:19:56;;;;;;;14.70;6.82;;;;;;;9.92;75.84;98854.41;5000473;28;20050;-77
2021/09/23 05:22:26;;;;;;;17.48;7.20;;;;;;;9.94;75.89;98854.91;4985253;28;20034;-76
2021/09/23 05:24:53;;;;;;;17.20;7.20;;;;;;;10.01;76.09;98849.91;4998611;28;20550;-77
2021/09/23 05:27:19;;;;;;;17.05;7.43;;;;;;;10.06;75.89;98851.75;4994307;28;20383;-76
2021/09/23 05:29:48;;;;;;;16.48;7.28;;;;;;;10.10;76.14;98857.44;4998510;28;20068;-75
2021/09/23 05:32:14;;;;;;;16.13;7.00;;;;;;;10.15;75.83;98849.19;5002926;28;20058;-76
2021/09/23 05:34:44;;;;;;;21.45;8.80;;;;;;;10.11;75.89;98846.22;4995704;28;20130;-77
2021/09/23 05:37:14;;;;;;;16.05;8.02;;;;;;;10.15;76.00;98860.91;4994243;28;20510;-76
2021/09/23 05:39:40;;;;;;;17.23;8.07;;;;;;;10.16;75.98;98856.28;4974254;28;20088;-76
2021/09/23 05:42:09;;;;;;;20.90;7.97;;;;;;;10.15;75.95;98849.19;5008826;28;20054;-76
2021/09/23 05:44:35;;;;;;;24.23;7.47;;;;;;;10.18;76.00;98854.06;4985163;28;20062;-76
2021/09/23 05:47:04;;;;;;;19.40;8.32;;;;;;;10.20;76.07;98863.56;4994118;28;20125;-75
2021/09/23 05:49:35;;;;;;;17.30;8.05;;;;;;;10.26;75.79;98864.31;4987779;28;20070;-76
2021/09/23 05:52:03;;;;;;;23.33;8.68;;;;;;;10.24;75.89;98871.97;4992243;28;20058;-76
2021/09/23 05:54:30;;;;;;;20.95;8.48;;;;;;;10.21;76.07;98869.84;4977517;28;20494;-76
2021/09/23 05:56:59;;;;;;;17.63;8.07;;;;;;;10.07;76.19;98851.47;4975305;28;20058;-77
2021/09/23 05:59:26;;;;;;;20.55;8.98;;;;;;;10.17;76.28;98853.22;4990152;28;20050;-76
2021/09/23 06:01:55;;;;;;;18.42;8.30;;;;;;;10.16;76.34;98856.28;4991720;28;20054;-76
2021/09/23 06:04:25;;;;;;;19.30;8.52;;;;;;;10.12;76.29;98855.22;4979628;28;20073;-76
2021/09/23 06:06:54;;;;;;;18.05;9.10;;;;;;;10.16;76.41;98861.75;4975060;28;20069;-76
2021/09/23 06:09:23;;;;;;;20.15;8.55;;;;;;;10.18;76.57;98860.31;4990722;28;20061;-77
2021/09/23 06:11:52;;;;;;;23.92;9.95;;;;;;;10.15;76.51;98858.19;4976000;28;20149;-78
2021/09/23 06:14:18;;;;;;;19.88;9.45;;;;;;;10.10;76.70;98844.59;4999203;28;20149;-77
2021/09/23 06:16:44;;;;;;;24.52;9.55;;;;;;;10.23;76.70;98855.91;4992625;28;20153;-77
2021/09/23 06:19:10;;;;;;;21.10;9.63;;;;;;;10.25;76.65;98857.22;4991877;28;20113;-78
2021/09/23 06:21:37;;;;;;;24.75;10.68;;;;;;;10.16;76.60;98845.34;4992151;28;20062;-77
2021/09/23 06:24:03;;;;;;;37.90;12.80;;;;;;;10.33;76.69;98861.19;4991136;28;20070;-77
2021/09/23 06:26:32;;;;;;;35.53;14.10;;;;;;;10.37;76.32;98856.75;4991639;28;20109;-77
2021/09/23 06:29:00;;;;;;;39.05;13.93;;;;;;;10.47;76.16;98862.13;4992338;28;20054;-77
2021/09/23 06:31:26;;;;;;;32.40;13.20;;;;;;;10.46;75.74;98860.50;4976835;28;20110;-76
2021/09/23 06:33:53;;;;;;;32.80;12.85;;;;;;;10.46;76.19;98863.22;4986816;28;20058;-76
2021/09/23 06:36:19;;;;;;;34.25;12.45;;;;;;;10.49;76.05;98865.34;4974813;28;20070;-77
2021/09/23 06:38:45;;;;;;;29.85;12.63;;;;;;;10.40;76.37;98866.28;4978842;28;20050;-77
2021/09/23 06:41:11;;;;;;;26.77;11.88;;;;;;;10.35;76.59;98857.06;4973966;28;20050;-75
2021/09/23 06:43:39;;;;;;;26.92;11.38;;;;;;;10.29;76.80;98852.78;4982538;28;20047;-76
2021/09/23 06:46:06;;;;;;;28.30;12.05;;;;;;;10.21;77.33;98846.06;4988704;28;20050;-77
2021/09/23 06:48:32;;;;;;;23.92;11.45;;;;;;;10.25;77.12;98846.28;4993404;28;20054;-77
2021/09/23 06:50:58;;;;;;;23.10;10.68;;;;;;;10.15;77.54;98830.88;4984960;28;20058;-76
2021/09/23 06:53:24;;;;;;;23.02;10.90;;;;;;;10.24;77.38;98835.69;5006758;28;20050;-78
2021/09/23 06:55:50;;;;;;;26.50;11.63;;;;;;;10.26;77.34;98847.91;4999385;28;20561;-77
2021/09/23 06:58:16;;;;;;;24.55;11.05;;;;;;;10.24;77.31;98841.13;5015756;28;20051;-77
2021/09/23 07:01:02;;;;;;;22.55;10.65;;;;;;;10.22;77.29;98838.69;4997122;28;20519;-75
2021/09/23 07:03:56;;;;;;;22.33;10.67;;;;;;;10.34;77.24;98836.31;4981919;28;20058;-76
2021/09/23 07:06:55;;;;;;;23.17;10.85;;;;;;;10.37;77.03;98848.56;4943827;28;20092;-77
2021/09/23 07:09:27;;;;;;;22.73;10.82;;;;;;;10.45;76.70;98850.66;4948134;28;20050;-77
2021/09/23 07:11:58;;;;;;;23.23;11.35;;;;;;;10.45;76.79;98837.00;4980890;28;20416;-77
2021/09/23 07:14:24;;;;;;;20.75;10.60;;;;;;;10.50;76.59;98850.56;4989148;28;20051;-77
2021/09/23 07:16:52;;;;;;;23.15;10.68;;;;;;;10.54;76.58;98844.53;4998228;28;20072;-77
2021/09/23 07:19:18;;;;;;;;;;;;;;;10.54;76.67;98853.53;4996450;28;20142;-77
2021/09/23 07:21:44;;;;;;;21.95;11.55;;;;;;;10.51;76.36;98837.75;4995016;28;20040;-77
2021/09/23 07:24:10;;;;;;;20.45;10.48;;;;;;;10.57;76.54;98844.75;4992687;28;20054;-78
2021/09/23 07:26:37;;;;;;;22.23;10.63;;;;;;;10.55;76.66;98846.16;4998040;28;20070;-76
2021/09/23 07:29:03;;;;;;;22.13;11.13;;;;;;;10.50;76.56;98836.13;4989019;28;20199;-75
2021/09/23 07:31:29;;;;;;;19.95;10.13;;;;;;;10.54;76.56;98837.13;4996729;28;20069;-76
2021/09/23 07:33:57;;;;;;;20.63;10.02;;;;;;;10.51;76.63;98826.81;4997511;28;20058;-77
2021/09/23 07:36:23;;;;;;;20.70;10.43;;;;;;;10.63;76.48;98843.56;4980712;28;20062;-77
2021/09/23 07:38:49;;;;;;;20.02;10.60;;;;;;;10.61;76.14;98823.09;4995513;28;20069;-77
2021/09/23 07:41:15;;;;;;;24.05;10.27;;;;;;;10.67;76.25;98818.34;4985995;28;20060;-77
2021/09/23 07:43:41;;;;;;;24.50;12.15;;;;;;;10.74;76.25;98833.25;4996135;28;20081;-76
2021/09/23 07:46:08;;;;;;;22.53;12.07;;;;;;;10.70;76.17;98824.03;4987952;28;20061;-76
2021/09/23 07:48:34;;;;;;;23.45;11.63;;;;;;;10.75;76.05;98829.41;4997115;28;20062;-77
2021/09/23 07:51:03;;;;;;;28.13;12.77;;;;;;;10.72;75.93;98821.00;4996541;28;20109;-76
2021/09/23 07:53:32;;;;;;;25.90;12.07;;;;;;;10.82;76.20;98831.75;4981223;28;20054;-76
2021/09/23 07:55:58;;;;;;;25.38;12.98;;;;;;;10.82;76.01;98826.28;4985865;28;20072;-76
2021/09/23 07:58:35;;;;;;;24.10;11.48;;;;;;;10.80;76.04;98817.59;4969057;28;20482;-76
2021/09/23 08:01:01;;;;;;;21.45;11.05;;;;;;;10.85;76.11;98822.13;4975565;28;20597;-77
2021/09/23 08:03:27;;;;;;;24.45;12.13;;;;;;;10.89;76.00;98817.69;4961132;28;20053;-76
2021/09/23 08:05:53;;;;;;;22.05;11.30;;;;;;;10.84;76.02;98817.78;4985099;28;20103;-76
2021/09/23 08:08:20;;;;;;;20.23;10.55;;;;;;;10.86;75.81;98816.38;4979455;28;20057;-75
2021/09/23 08:10:46;;;;;;;21.00;11.48;;;;;;;10.87;76.26;98812.53;4996484;28;20085;-77
2021/09/23 08:13:12;;;;;;;20.08;10.73;;;;;;;10.78;76.05;98800.66;4979884;28;20058;-76
2021/09/23 08:15:39;;;;;;;24.27;11.10;;;;;;;10.89;76.09;98813.03;4980676;28;20050;-75
2021/09/23 08:18:20;;;;;;;21.65;10.52;;;;;;;10.84;75.92;98804.94;4957304;28;20547;-76
2021/09/23 08:21:06;;;;;;;18.90;10.70;;;;;;;10.88;75.89;98810.63;4988630;28;20054;-76
2021/09/23 08:23:33;;;;;;;20.42;9.98;;;;;;;10.90;76.03;98811.13;4968680;28;20081;-76
2021/09/23 08:25:59;;;;;;;22.55;10.43;;;;;;;10.90;75.87;98798.25;4970337;28;20050;-76
2021/09/23 08:28:31;;;;;;;22.23;11.30;;;;;;;10.82;76.02;98796.22;4964808;28;20141;-76
2021/09/23 08:30:59;;;;;;;20.42;10.73;;;;;;;10.96;75.65;98800.91;4972404;28;20058;-76
2021/09/23 08:33:25;;;;;;;21.52;11.65;;;;;;;10.98;75.72;98796.72;4961457;28;20052;-76
2021/09/23 08:35:51;;;;;;;22.23;11.32;;;;;;;10.94;75.90;98784.78;4976533;28;20058;-75
2021/09/23 08:38:20;;;;;;;20.52;10.98;;;;;;;10.98;75.73;98795.94;4977342;28;20065;-76
2021/09/23 08:40:51;;;;;;;22.10;11.60;;;;;;;10.97;75.76;98799.78;4977007;28;20042;-77
2021/09/23 08:43:19;;;;;;;26.50;11.68;;;;;;;10.93;75.74;98788.63;4993344;28;20069;-76
2021/09/23 08:45:45;;;;;;;20.80;10.52;;;;;;;10.92;75.64;98793.28;4982564;28;20054;-76
2021/09/23 08:48:13;;;;;;;;;;;;;;;10.90;75.88;98792.78;4968337;28;20061;-76
2021/09/23 08:50:40;;;;;;;18.02;9.88;;;;;;;10.89;75.82;98790.34;4960731;28;19952;-75
2021/09/23 08:53:08;;;;;;;20.65;9.95;;;;;;;10.90;75.71;98783.78;4969912;28;20073;-76
2021/09/23 08:55:35;;;;;;;20.98;9.75;;;;;;;10.88;75.77;98789.53;4976494;28;20061;-76
2021/09/23 08:58:08;;;;;;;21.48;9.77;;;;;;;10.89;75.84;98796.63;4976654;28;20176;-76
2021/09/23 09:00:36;;;;;;;;;;;;;;;10.94;75.60;98800.41;4991859;28;20055;-76
2021/09/23 09:03:04;;;;;;;18.65;9.05;;;;;;;10.93;75.53;98788.63;5003721;28;19926;-76
2021/09/23 09:05:52;;;;;;;24.67;9.45;;;;;;;10.99;75.47;98792.88;4976394;28;20069;-76
2021/09/23 09:08:37;;;;;;;16.45;8.90;;;;;;;11.00;75.37;98790.97;4972024;28;20073;-76
2021/09/23 09:11:13;;;;;;;15.98;9.32;;;;;;;10.99;75.48;98792.88;4976688;28;20065;-76
2021/09/23 09:13:42;;;;;;;16.48;8.73;;;;;;;10.99;75.50;98778.41;4993404;28;20066;-76
2021/09/23 09:16:11;;;;;;;16.40;9.32;;;;;;;11.07;75.67;98791.38;4992313;28;20054;-75
2021/09/23 09:18:38;;;;;;;17.23;9.18;;;;;;;11.09;75.61;98788.34;4965114;28;20057;-75
2021/09/23 09:21:07;;;;;;;16.48;8.68;;;;;;;11.06;75.78;98795.22;4959381;28;20054;-75
2021/09/23 09:23:40;;;;;;;16.33;8.55;;;;;;;11.08;75.76;98782.03;4976170;28;20141;-75
2021/09/23 09:26:07;;;;;;;16.63;7.93;;;;;;;11.09;75.34;98793.81;4991494;28;20466;-76
2021/09/23 09:28:46;;;;;;;15.60;7.97;;;;;;;11.06;75.59;98776.06;4974448;28;20090;-76
2021/09/23 09:31:13;;;;;;;15.23;7.55;;;;;;;11.06;75.32;98776.06;4991477;28;20117;-75
2021/09/23 09:33:41;;;;;;;15.18;7.55;;;;;;;11.10;75.38;98770.81;4975200;28;20523;-75
2021/09/23 09:36:27;;;;;;;14.45;7.15;;;;;;;11.03;75.51;98763.84;4993347;28;20058;-75
2021/09/23 09:38:54;;;;;;;25.23;10.10;;;;;;;11.12;75.32;98771.31;4959705;28;20055;-75
2021/09/23 09:41:26;;;;;;;21.83;10.18;;;;;;;11.04;75.58;98764.63;4975693;28;20387;-75
2021/09/23 09:43:58;;;;;;;21.33;11.25;;;;;;;11.05;75.50;98763.50;4975994;28;20051;-76
2021/09/23 09:46:27;;;;;;;24.90;11.55;;;;;;;11.09;75.59;98771.94;4988667;28;20049;-75
2021/09/23 09:48:54;;;;;;;28.10;11.77;;;;;;;11.02;75.66;98777.81;4958007;28;20515;-74
2021/09/23 09:51:35;;;;;;;25.20;11.00;;;;;;;10.97;75.92;98777.91;4974152;28;20054;-76
2021/09/23 09:54:04;;;;;;;27.73;11.73;;;;;;;10.98;75.85;98766.66;4992932;28;20458;-74
2021/09/23 09:56:34;;;;;;;32.38;12.23;;;;;;;10.97;75.43;98767.75;4989875;28;20054;-75
2021/09/23 09:59:07;;;;;;;23.47;10.83;;;;;;;10.99;75.35;98759.25;4991645;28;20475;-76
2021/09/23 10:01:34;;;;;;;19.88;9.82;;;;;;;11.03;74.96;98750.16;4974876;28;20820;-76
2021/09/23 10:04:01;;;;;;;27.42;10.25;;;;;;;11.05;74.76;98756.13;4959273;28;20503;-76
2021/09/23 10:06:28;;;;;;;21.15;10.82;;;;;;;11.07;74.70;98755.81;4991603;28;20046;-75
2021/09/23 10:08:54;;;;;;;18.73;9.73;;;;;;;11.05;74.44;98752.56;4975427;28;20118;-75
2021/09/23 10:11:21;;;;;;;21.27;10.80;;;;;;;11.13;74.38;98753.78;4991648;28;20056;-77
2021/09/23 10:13:48;;;;;;;26.20;11.27;;;;;;;11.12;74.49;98757.63;4972400;28;20113;-75
2021/09/23 10:16:16;;;;;;;22.52;11.38;;;;;;;11.09;74.57;98756.34;4971894;28;20321;-75
2021/09/23 10:18:43;;;;;;;20.50;10.77;;;;;;;11.16;74.54;98753.16;4971707;28;20145;-75
2021/09/23 10:21:09;;;;;;;17.10;9.23;;;;;;;11.18;74.30;98751.75;4974599;28;20536;-76
2021/09/23 10:23:40;;;;;;;20.10;9.70;;;;;;;10.98;74.00;98702.94;4974760;28;20144;-75
2021/09/23 10:26:07;;;;;;;16.60;8.18;;;;;;;11.34;73.20;98748.72;4969536;28;20137;-76
2021/09/23 10:28:35;;;;;;;15.95;7.63;;;;;;;11.25;73.25;98742.34;4975006;28;20571;-75
2021/09/23 10:31:04;;;;;;;18.48;8.70;;;;;;;11.33;73.03;98750.66;4957997;28;20039;-78
2021/09/23 10:33:32;;;;;;;16.55;8.32;;;;;;;11.33;73.00;98747.91;4982235;28;20391;-79
2021/09/23 10:36:00;;;;;;;17.50;8.73;;;;;;;11.27;72.88;98740.91;4973942;28;20050;-78
2021/09/23 10:38:30;;;;;;;15.68;8.20;;;;;;;11.31;72.88;98746.59;4964338;28;20470;-78
2021/09/23 10:40:58;;;;;;;18.65;9.43;;;;;;;11.32;73.29;98745.47;4973699;28;20092;-80
2021/09/23 10:43:28;;;;;;;21.80;10.40;;;;;;;11.30;73.38;98739.50;4991593;28;20069;-80
2021/09/23 10:45:59;;;;;;;22.13;11.27;;;;;;;11.17;73.85;98739.19;4958262;28;20144;-78
2021/09/23 10:48:34;;;;;;;20.42;10.25;;;;;;;11.15;73.83;98746.91;4974475;28;20525;-78
2021/09/23 10:51:02;;;;;;;21.38;10.20;;;;;;;11.10;73.86;98735.25;4958723;28;20050;-79
2021/09/23 10:53:32;;;;;;;19.38;9.63;;;;;;;11.01;74.08;98725.03;4964840;28;20051;-79
2021/09/23 10:56:07;;;;;;;16.98;8.18;;;;;;;11.14;73.81;98741.72;4956048;28;20073;-80
2021/09/23 10:58:39;;;;;;;14.63;7.75;;;;;;;11.12;73.96;98741.22;4956134;28;20051;-79
2021/09/23 11:01:07;;;;;;;15.77;8.07;;;;;;;11.13;73.49;98740.09;4971060;28;20085;-78
2021/09/23 11:03:37;;;;;;;17.42;8.45;;;;;;;11.14;73.63;98730.78;4980288;28;20050;-78
2021/09/23 11:06:08;;;;;;;16.23;8.35;;;;;;;11.24;73.66;98736.06;4980248;28;20100;-78
2021/09/23 11:08:38;;;;;;;15.98;8.52;;;;;;;11.37;73.54;98739.88;4996937;28;20058;-80
2021/09/23 11:11:07;;;;;;;14.07;7.68;;;;;;;11.36;73.57;98724.59;5010461;28;20076;-79
2021/09/23 11:13:36;;;;;;;16.83;8.30;;;;;;;11.39;73.20;98726.69;4978214;28;20057;-78
2021/09/23 11:16:05;;;;;;;18.00;8.10;;;;;;;11.49;72.84;98725.69;4983062;28;20058;-77
2021/09/23 11:18:32;;;;;;;17.70;7.65;;;;;;;11.54;72.79;98732.97;4976810;28;20547;-78
2021/09/23 11:21:01;;;;;;;18.98;8.15;;;;;;;11.58;72.75;98728.53;4976063;28;20148;-78
2021/09/23 11:23:28;;;;;;;22.10;7.80;;;;;;;11.51;73.09;98726.19;4958479;28;20058;-78
2021/09/23 11:25:55;;;;;;;16.52;7.35;;;;;;;11.56;72.64;98726.06;4983151;28;20058;-77
2021/09/23 11:28:24;;;;;;;17.33;8.43;;;;;;;11.65;72.60;98726.16;4960110;28;20093;-79
2021/09/23 11:30:52;;;;;;;17.88;7.68;;;;;;;11.72;72.31;98723.00;4961319;28;20050;-78
2021/09/23 11:33:22;;;;;;;17.73;7.75;;;;;;;11.70;72.15;98714.28;4976318;28;20066;-78